Johns Run, Kentucky
Current Conditions -  °F | °C
As of 8:55 AM on Monday 20 Oct 2014 (Local Time) from KDWU Reporting Station
Clear Clear  
Wind Chill: 45°   Ceiling: Unl
Heat Index: 45°   Visibility: 10mi
Dew Point: 39°   Wind: 3mph
Humidity: 81%   Direction: 140°SE
Pressure: 30.05"   Gusts: NA
Location:  38.3193°N, 82.994°W
Report Text: KDWU 201255Z AUTO 14003KT 10SM CLR 07/04 A3005 RMK AO1
Loading
Personal Weather Stations






























Interactive Weather Map
Tropical Storm Tracking
New forecast layout! Learn more

10-Day Weather Forecast

Advertisements
Track Severe Weather on mobile